CICMA EDHL-EDDH
Flight info
| Callsign | CICMA |
|---|---|
| Flight time | 0h 44m |
| Altitude | 4000 |
| Route | LUGEG STAY1/0030 HAM |
| Aircraft | PA31/L-V/N |
Departure
| Time | 2026-04-23 17:32 |
|---|---|
| Airport | Lübeck Blankensee Airport (EDHL) |
Arrival
| Time | 2026-04-23 18:17 |
|---|---|
| Airport | Hamburg Helmut Schmidt Airport (EDDH) |
| Time | Latitude | Longitude | Altitude | Speed | Heading |
|---|---|---|---|---|---|
| 2026-04-23 17:14 | 53.80547 | 10.70466 | 55 ft | 0 kts | 54° |
| 2026-04-23 17:19 | 53.80550 | 10.70472 | 55 ft | 4 kts | 41° |
| 2026-04-23 17:19 | 53.80590 | 10.70447 | 55 ft | 5 kts | 316° |
| 2026-04-23 17:20 | 53.80578 | 10.70358 | 55 ft | 14 kts | 221° |
| 2026-04-23 17:20 | 53.80465 | 10.70538 | 55 ft | 14 kts | 73° |
| 2026-04-23 17:21 | 53.80531 | 10.70878 | 54 ft | 15 kts | 71° |
| 2026-04-23 17:21 | 53.80561 | 10.71037 | 54 ft | 14 kts | 72° |
| 2026-04-23 17:21 | 53.80621 | 10.71345 | 53 ft | 13 kts | 72° |
| 2026-04-23 17:22 | 53.80649 | 10.71493 | 53 ft | 13 kts | 74° |
| 2026-04-23 17:22 | 53.80630 | 10.71751 | 53 ft | 4 kts | 113° |
| 2026-04-23 17:23 | 53.80629 | 10.71754 | 53 ft | 0 kts | 114° |
| 2026-04-23 17:23 | 53.80629 | 10.71753 | 53 ft | 0 kts | 114° |
| 2026-04-23 17:26 | 53.80629 | 10.71754 | 53 ft | 0 kts | 114° |
| 2026-04-23 17:26 | 53.80614 | 10.71812 | 53 ft | 1 kts | 115° |
| 2026-04-23 17:27 | 53.80613 | 10.71815 | 53 ft | 0 kts | 115° |
| 2026-04-23 17:29 | 53.80611 | 10.71823 | 53 ft | 4 kts | 115° |
| 2026-04-23 17:29 | 53.80544 | 10.71982 | 53 ft | 3 kts | 253° |
| 2026-04-23 17:30 | 53.80543 | 10.71975 | 53 ft | 0 kts | 253° |
| 2026-04-23 17:31 | 53.80505 | 10.71776 | 53 ft | 52 kts | 252° |
| 2026-04-23 17:31 | 53.80326 | 10.70848 | 88 ft | 100 kts | 253° |
| 2026-04-23 17:32 | 53.80141 | 10.69762 | 484 ft | 97 kts | 259° |
| 2026-04-23 17:32 | 53.80047 | 10.68574 | 809 ft | 105 kts | 269° |
| 2026-04-23 17:32 | 53.79979 | 10.67369 | 1206 ft | 108 kts | 262° |
| 2026-04-23 17:32 | 53.79695 | 10.66086 | 1494 ft | 124 kts | 253° |
| 2026-04-23 17:33 | 53.79333 | 10.64756 | 1805 ft | 123 kts | 254° |
| 2026-04-23 17:33 | 53.78987 | 10.63462 | 2075 ft | 119 kts | 256° |
| 2026-04-23 17:33 | 53.78670 | 10.62192 | 2319 ft | 117 kts | 258° |
| 2026-04-23 17:33 | 53.78427 | 10.60906 | 2545 ft | 116 kts | 261° |
| 2026-04-23 17:34 | 53.78156 | 10.59616 | 2773 ft | 118 kts | 261° |
| 2026-04-23 17:34 | 53.77874 | 10.58292 | 3012 ft | 120 kts | 261° |
| 2026-04-23 17:34 | 53.77354 | 10.55620 | 3491 ft | 116 kts | 279° |
| 2026-04-23 17:35 | 53.77646 | 10.54481 | 3719 ft | 105 kts | 324° |
| 2026-04-23 17:35 | 53.79004 | 10.55124 | 4002 ft | 135 kts | 42° |
| 2026-04-23 17:35 | 53.79612 | 10.56438 | 4002 ft | 150 kts | 43° |
| 2026-04-23 17:36 | 53.80289 | 10.57873 | 4000 ft | 159 kts | 43° |
| 2026-04-23 17:36 | 53.80993 | 10.59346 | 3999 ft | 164 kts | 43° |
| 2026-04-23 17:36 | 53.81717 | 10.60854 | 3997 ft | 166 kts | 43° |
| 2026-04-23 17:36 | 53.82438 | 10.62347 | 3995 ft | 164 kts | 44° |
| 2026-04-23 17:37 | 53.83162 | 10.63840 | 3995 ft | 164 kts | 43° |
| 2026-04-23 17:37 | 53.83894 | 10.65351 | 3996 ft | 165 kts | 44° |
| 2026-04-23 17:37 | 53.85350 | 10.68321 | 3996 ft | 165 kts | 43° |
| 2026-04-23 17:38 | 53.86082 | 10.69810 | 3993 ft | 165 kts | 43° |
| 2026-04-23 17:38 | 53.86649 | 10.71525 | 3991 ft | 174 kts | 70° |
| 2026-04-23 17:38 | 53.86865 | 10.73546 | 3990 ft | 176 kts | 73° |
| 2026-04-23 17:38 | 53.87073 | 10.75599 | 3987 ft | 176 kts | 73° |
| 2026-04-23 17:39 | 53.87281 | 10.77629 | 3983 ft | 176 kts | 73° |
| 2026-04-23 17:39 | 53.87491 | 10.79675 | 3982 ft | 176 kts | 73° |
| 2026-04-23 17:39 | 53.87700 | 10.81729 | 3982 ft | 176 kts | 73° |
| 2026-04-23 17:39 | 53.87907 | 10.83779 | 3984 ft | 176 kts | 73° |
| 2026-04-23 17:40 | 53.88115 | 10.85821 | 3984 ft | 176 kts | 73° |
| 2026-04-23 17:40 | 53.88430 | 10.87787 | 3983 ft | 173 kts | 65° |
| 2026-04-23 17:40 | 53.88804 | 10.89720 | 3982 ft | 173 kts | 65° |
| 2026-04-23 17:40 | 53.89180 | 10.91671 | 3982 ft | 173 kts | 65° |
| 2026-04-23 17:41 | 53.89554 | 10.93602 | 3983 ft | 174 kts | 65° |
| 2026-04-23 17:41 | 53.90324 | 10.97505 | 3976 ft | 175 kts | 65° |
| 2026-04-23 17:41 | 53.90712 | 10.99445 | 3970 ft | 175 kts | 65° |
| 2026-04-23 17:42 | 53.91436 | 11.03369 | 3961 ft | 180 kts | 81° |
| 2026-04-23 17:42 | 53.91049 | 11.05401 | 3962 ft | 188 kts | 126° |
| 2026-04-23 17:42 | 53.89966 | 11.06534 | 3959 ft | 185 kts | 170° |
| 2026-04-23 17:43 | 53.88761 | 11.06239 | 3964 ft | 170 kts | 211° |
| 2026-04-23 17:43 | 53.87748 | 11.05320 | 3966 ft | 163 kts | 214° |
| 2026-04-23 17:43 | 53.86823 | 11.04259 | 3827 ft | 154 kts | 238° |
| 2026-04-23 17:43 | 53.86433 | 11.02709 | 3659 ft | 141 kts | 260° |
| 2026-04-23 17:44 | 53.86153 | 11.01134 | 3489 ft | 137 kts | 259° |
| 2026-04-23 17:44 | 53.85873 | 10.99611 | 3315 ft | 134 kts | 259° |
| 2026-04-23 17:44 | 53.85316 | 10.96661 | 2964 ft | 129 kts | 259° |
| 2026-04-23 17:45 | 53.85043 | 10.95231 | 2793 ft | 128 kts | 259° |
| 2026-04-23 17:45 | 53.84499 | 10.92403 | 2451 ft | 124 kts | 259° |
| 2026-04-23 17:45 | 53.84235 | 10.91025 | 2280 ft | 123 kts | 261° |
| 2026-04-23 17:46 | 53.83714 | 10.88321 | 1941 ft | 119 kts | 260° |
| 2026-04-23 17:46 | 53.83461 | 10.87013 | 1780 ft | 117 kts | 259° |
| 2026-04-23 17:46 | 53.83210 | 10.85708 | 1619 ft | 115 kts | 258° |
| 2026-04-23 17:47 | 53.82965 | 10.84438 | 1463 ft | 113 kts | 258° |
| 2026-04-23 17:47 | 53.82722 | 10.83185 | 1322 ft | 109 kts | 258° |
| 2026-04-23 17:47 | 53.82284 | 10.80916 | 1039 ft | 101 kts | 258° |
| 2026-04-23 17:48 | 53.82061 | 10.79762 | 901 ft | 104 kts | 257° |
| 2026-04-23 17:48 | 53.81836 | 10.78603 | 757 ft | 104 kts | 256° |
| 2026-04-23 17:48 | 53.81605 | 10.77443 | 595 ft | 104 kts | 254° |
| 2026-04-23 17:48 | 53.81374 | 10.76286 | 457 ft | 105 kts | 254° |
| 2026-04-23 17:49 | 53.81142 | 10.75095 | 646 ft | 110 kts | 255° |
| 2026-04-23 17:49 | 53.80904 | 10.73816 | 901 ft | 118 kts | 257° |
| 2026-04-23 17:49 | 53.80644 | 10.72478 | 1152 ft | 127 kts | 257° |
| 2026-04-23 17:49 | 53.80353 | 10.71003 | 1398 ft | 135 kts | 258° |
| 2026-04-23 17:50 | 53.80062 | 10.69492 | 1662 ft | 138 kts | 260° |
| 2026-04-23 17:50 | 53.79465 | 10.66383 | 2217 ft | 140 kts | 260° |
| 2026-04-23 17:50 | 53.79167 | 10.64818 | 2492 ft | 142 kts | 259° |
| 2026-04-23 17:51 | 53.78863 | 10.63242 | 2756 ft | 140 kts | 260° |
| 2026-04-23 17:51 | 53.78579 | 10.61678 | 2951 ft | 141 kts | 268° |
| 2026-04-23 17:51 | 53.79608 | 10.59255 | 2991 ft | 148 kts | 349° |
| 2026-04-23 17:52 | 53.80652 | 10.59580 | 2995 ft | 160 kts | 15° |
| 2026-04-23 17:52 | 53.82491 | 10.61778 | 2990 ft | 184 kts | 61° |
| 2026-04-23 17:52 | 53.82934 | 10.63836 | 2983 ft | 184 kts | 64° |
| 2026-04-23 17:53 | 53.83776 | 10.67804 | 2985 ft | 177 kts | 64° |
| 2026-04-23 17:53 | 53.84188 | 10.69753 | 2984 ft | 175 kts | 64° |
| 2026-04-23 17:53 | 53.84598 | 10.71690 | 2983 ft | 174 kts | 64° |
| 2026-04-23 17:54 | 53.84996 | 10.73603 | 2982 ft | 173 kts | 64° |
| 2026-04-23 17:54 | 53.85397 | 10.75539 | 2983 ft | 174 kts | 64° |
| 2026-04-23 17:54 | 53.86203 | 10.79372 | 3119 ft | 168 kts | 64° |
| 2026-04-23 17:55 | 53.86940 | 10.83015 | 3399 ft | 162 kts | 64° |
| 2026-04-23 17:55 | 53.87294 | 10.84811 | 3543 ft | 163 kts | 63° |
| 2026-04-23 17:55 | 53.87651 | 10.86638 | 3718 ft | 163 kts | 64° |
| 2026-04-23 17:56 | 53.88014 | 10.88459 | 3894 ft | 163 kts | 64° |
| 2026-04-23 17:56 | 53.88760 | 10.92157 | 3979 ft | 169 kts | 64° |
| 2026-04-23 17:56 | 53.89151 | 10.94053 | 3982 ft | 171 kts | 64° |
| 2026-04-23 17:57 | 53.89555 | 10.95977 | 3980 ft | 173 kts | 64° |
| 2026-04-23 17:57 | 53.89961 | 10.97874 | 3974 ft | 174 kts | 64° |
| 2026-04-23 17:57 | 53.90784 | 11.01747 | 3973 ft | 175 kts | 64° |
| 2026-04-23 17:58 | 53.91188 | 11.03697 | 3963 ft | 177 kts | 69° |
| 2026-04-23 17:58 | 53.90945 | 11.05766 | 3963 ft | 190 kts | 123° |
| 2026-04-23 17:58 | 53.89820 | 11.06846 | 3962 ft | 189 kts | 178° |
| 2026-04-23 17:58 | 53.88611 | 11.06313 | 3898 ft | 177 kts | 212° |
| 2026-04-23 17:59 | 53.87584 | 11.05305 | 3748 ft | 167 kts | 223° |
| 2026-04-23 17:59 | 53.86811 | 11.03918 | 3520 ft | 159 kts | 242° |
| 2026-04-23 17:59 | 53.86323 | 11.02280 | 3300 ft | 154 kts | 255° |
| 2026-04-23 17:59 | 53.85989 | 11.00572 | 3087 ft | 152 kts | 259° |
| 2026-04-23 18:00 | 53.85692 | 10.98889 | 2984 ft | 148 kts | 259° |
| 2026-04-23 18:00 | 53.85381 | 10.97235 | 2980 ft | 148 kts | 258° |
| 2026-04-23 18:00 | 53.85055 | 10.95534 | 2892 ft | 157 kts | 258° |
| 2026-04-23 18:00 | 53.84713 | 10.93763 | 2669 ft | 162 kts | 258° |
| 2026-04-23 18:01 | 53.84362 | 10.91944 | 2421 ft | 162 kts | 258° |
| 2026-04-23 18:01 | 53.84020 | 10.90146 | 2175 ft | 160 kts | 258° |
| 2026-04-23 18:01 | 53.83684 | 10.88384 | 1951 ft | 153 kts | 259° |
| 2026-04-23 18:01 | 53.83364 | 10.86702 | 1747 ft | 147 kts | 259° |
| 2026-04-23 18:02 | 53.83059 | 10.85093 | 1549 ft | 142 kts | 258° |
| 2026-04-23 18:02 | 53.82761 | 10.83534 | 1352 ft | 134 kts | 258° |
| 2026-04-23 18:02 | 53.82491 | 10.82138 | 1177 ft | 115 kts | 258° |
| 2026-04-23 18:02 | 53.82258 | 10.80983 | 987 ft | 102 kts | 256° |
| 2026-04-23 18:03 | 53.82038 | 10.79874 | 815 ft | 96 kts | 256° |
| 2026-04-23 18:03 | 53.81838 | 10.78814 | 703 ft | 93 kts | 256° |
| 2026-04-23 18:03 | 53.81635 | 10.77751 | 652 ft | 97 kts | 256° |
| 2026-04-23 18:03 | 53.81430 | 10.76661 | 558 ft | 99 kts | 256° |
| 2026-04-23 18:04 | 53.81220 | 10.75536 | 407 ft | 101 kts | 255° |
| 2026-04-23 18:04 | 53.81006 | 10.74379 | 327 ft | 105 kts | 254° |
| 2026-04-23 18:04 | 53.80780 | 10.73210 | 652 ft | 110 kts | 255° |
| 2026-04-23 18:04 | 53.80553 | 10.71944 | 959 ft | 118 kts | 260° |
| 2026-04-23 18:05 | 53.80352 | 10.70473 | 1124 ft | 138 kts | 261° |
| 2026-04-23 18:05 | 53.80087 | 10.68848 | 1327 ft | 148 kts | 260° |
| 2026-04-23 18:05 | 53.79798 | 10.67168 | 1558 ft | 152 kts | 260° |
| 2026-04-23 18:05 | 53.79497 | 10.65428 | 1805 ft | 155 kts | 260° |
| 2026-04-23 18:06 | 53.79189 | 10.63674 | 2052 ft | 157 kts | 259° |
| 2026-04-23 18:06 | 53.78871 | 10.61912 | 2300 ft | 158 kts | 260° |
| 2026-04-23 18:06 | 53.78589 | 10.60121 | 2545 ft | 156 kts | 263° |
| 2026-04-23 18:06 | 53.78313 | 10.58395 | 2760 ft | 152 kts | 263° |
| 2026-04-23 18:07 | 53.78022 | 10.56682 | 2962 ft | 150 kts | 263° |
| 2026-04-23 18:07 | 53.77731 | 10.55006 | 3148 ft | 150 kts | 263° |
| 2026-04-23 18:07 | 53.77428 | 10.53309 | 3333 ft | 151 kts | 262° |
| 2026-04-23 18:07 | 53.77128 | 10.51527 | 3248 ft | 171 kts | 264° |
| 2026-04-23 18:08 | 53.76930 | 10.50183 | 3158 ft | 178 kts | 263° |
| 2026-04-23 18:08 | 53.76505 | 10.47508 | 3015 ft | 176 kts | 263° |
| 2026-04-23 18:08 | 53.76409 | 10.45584 | 2990 ft | 157 kts | 293° |
| 2026-04-23 18:08 | 53.76969 | 10.44121 | 2992 ft | 147 kts | 313° |
| 2026-04-23 18:09 | 53.77624 | 10.42787 | 2990 ft | 149 kts | 314° |
| 2026-04-23 18:09 | 53.78305 | 10.41413 | 2987 ft | 154 kts | 314° |
| 2026-04-23 18:09 | 53.79003 | 10.40016 | 2990 ft | 158 kts | 314° |
| 2026-04-23 18:09 | 53.79712 | 10.38592 | 2995 ft | 156 kts | 314° |
| 2026-04-23 18:10 | 53.80395 | 10.37205 | 2991 ft | 152 kts | 314° |
| 2026-04-23 18:10 | 53.81051 | 10.35862 | 2995 ft | 149 kts | 313° |
| 2026-04-23 18:10 | 53.81401 | 10.34214 | 2994 ft | 160 kts | 275° |
| 2026-04-23 18:10 | 53.80865 | 10.32470 | 2991 ft | 181 kts | 230° |
| 2026-04-23 18:11 | 53.79678 | 10.31541 | 3006 ft | 194 kts | 204° |
| 2026-04-23 18:11 | 53.78494 | 10.30537 | 2997 ft | 186 kts | 233° |
| 2026-04-23 18:11 | 53.77718 | 10.28856 | 3013 ft | 184 kts | 243° |
| 2026-04-23 18:11 | 53.76927 | 10.27111 | 3012 ft | 187 kts | 241° |
| 2026-04-23 18:12 | 53.76120 | 10.25399 | 3012 ft | 189 kts | 240° |
| 2026-04-23 18:12 | 53.75294 | 10.23682 | 3013 ft | 189 kts | 239° |
| 2026-04-23 18:12 | 53.74456 | 10.21960 | 3011 ft | 188 kts | 239° |
| 2026-04-23 18:12 | 53.73633 | 10.20287 | 3016 ft | 181 kts | 240° |
| 2026-04-23 18:13 | 53.72838 | 10.18664 | 2894 ft | 183 kts | 240° |
| 2026-04-23 18:13 | 53.72020 | 10.16996 | 2663 ft | 185 kts | 240° |
| 2026-04-23 18:13 | 53.71198 | 10.15329 | 2431 ft | 183 kts | 240° |
| 2026-04-23 18:13 | 53.70389 | 10.13685 | 2182 ft | 182 kts | 240° |
| 2026-04-23 18:14 | 53.69595 | 10.12075 | 1948 ft | 180 kts | 240° |
| 2026-04-23 18:14 | 53.68795 | 10.10454 | 1702 ft | 177 kts | 239° |
| 2026-04-23 18:14 | 53.68010 | 10.08860 | 1458 ft | 176 kts | 238° |
| 2026-04-23 18:14 | 53.67233 | 10.07292 | 1214 ft | 166 kts | 237° |
| 2026-04-23 18:15 | 53.66578 | 10.05978 | 1002 ft | 127 kts | 238° |
| 2026-04-23 18:15 | 53.66031 | 10.04861 | 859 ft | 121 kts | 238° |
| 2026-04-23 18:15 | 53.65493 | 10.03810 | 690 ft | 118 kts | 235° |
| 2026-04-23 18:15 | 53.64962 | 10.02804 | 519 ft | 113 kts | 238° |
| 2026-04-23 18:16 | 53.64472 | 10.01782 | 370 ft | 109 kts | 238° |
| 2026-04-23 18:16 | 53.64006 | 10.00811 | 218 ft | 102 kts | 236° |
| 2026-04-23 18:16 | 53.63591 | 9.99951 | 69 ft | 85 kts | 234° |
| 2026-04-23 18:17 | 53.63133 | 9.99313 | 57 ft | 5 kts | 193° |
| 2026-04-23 18:17 | 53.63128 | 9.99311 | 57 ft | 0 kts | 193° |
| 2026-04-23 18:22 | 53.63127 | 9.99311 | 57 ft | 0 kts | 193° |
| 2026-04-23 18:22 | 53.63087 | 9.99291 | 57 ft | 10 kts | 194° |
| 2026-04-23 18:22 | 53.63010 | 9.99311 | 57 ft | 11 kts | 153° |
| 2026-04-23 18:22 | 53.62937 | 9.99373 | 57 ft | 12 kts | 152° |
| 2026-04-23 18:23 | 53.62886 | 9.99420 | 57 ft | 12 kts | 150° |
| 2026-04-23 18:23 | 53.62701 | 9.99581 | 57 ft | 13 kts | 153° |
| 2026-04-23 18:24 | 53.62603 | 9.99450 | 57 ft | 10 kts | 260° |
| 2026-04-23 18:24 | 53.62590 | 9.99344 | 57 ft | 8 kts | 241° |
| 2026-04-23 18:24 | 53.62542 | 9.99351 | 57 ft | 7 kts | 145° |
| 2026-04-23 18:25 | 53.62542 | 9.99546 | 57 ft | 10 kts | 80° |
| 2026-04-23 18:25 | 53.62567 | 9.99587 | 57 ft | 8 kts | 278° |
| 2026-04-23 18:25 | 53.62562 | 9.99544 | 57 ft | 0 kts | 252° |